sensor_id;sensor_type;location;lat;lon;timestamp;P1;durP1;ratioP1;P2;durP2;ratioP2
53044;SDS011;38930;52.766;6.884;2023-03-01T00:01:15;16.92;;;9.23;;
53044;SDS011;38930;52.766;6.884;2023-03-01T00:03:45;16.38;;;9.90;;
53044;SDS011;38930;52.766;6.884;2023-03-01T00:06:11;14.63;;;9.73;;
53044;SDS011;38930;52.766;6.884;2023-03-01T00:08:36;13.82;;;9.32;;
53044;SDS011;38930;52.766;6.884;2023-03-01T00:11:04;17.05;;;8.60;;
53044;SDS011;38930;52.766;6.884;2023-03-01T00:13:33;16.90;;;9.65;;
53044;SDS011;38930;52.766;6.884;2023-03-01T00:16:01;17.37;;;8.87;;
53044;SDS011;38930;52.766;6.884;2023-03-01T00:18:31;22.30;;;9.50;;
53044;SDS011;38930;52.766;6.884;2023-03-01T00:20:57;18.58;;;9.98;;
53044;SDS011;38930;52.766;6.884;2023-03-01T00:23:23;18.40;;;10.68;;
53044;SDS011;38930;52.766;6.884;2023-03-01T00:25:49;17.60;;;9.43;;
53044;SDS011;38930;52.766;6.884;2023-03-01T00:28:15;17.70;;;9.93;;
53044;SDS011;38930;52.766;6.884;2023-03-01T00:30:41;15.47;;;9.13;;
53044;SDS011;38930;52.766;6.884;2023-03-01T00:33:07;16.02;;;8.95;;
53044;SDS011;38930;52.766;6.884;2023-03-01T00:35:33;18.90;;;10.10;;
53044;SDS011;38930;52.766;6.884;2023-03-01T00:37:59;18.02;;;10.27;;
53044;SDS011;38930;52.766;6.884;2023-03-01T00:40:26;14.73;;;9.10;;
53044;SDS011;38930;52.766;6.884;2023-03-01T00:42:52;17.45;;;9.98;;
53044;SDS011;38930;52.766;6.884;2023-03-01T00:45:18;18.80;;;10.45;;
53044;SDS011;38930;52.766;6.884;2023-03-01T00:47:44;16.60;;;10.20;;
53044;SDS011;38930;52.766;6.884;2023-03-01T00:50:10;14.32;;;8.82;;
53044;SDS011;38930;52.766;6.884;2023-03-01T00:52:36;20.75;;;10.20;;
53044;SDS011;38930;52.766;6.884;2023-03-01T00:55:02;16.40;;;9.75;;
53044;SDS011;38930;52.766;6.884;2023-03-01T00:57:29;18.65;;;10.50;;
53044;SDS011;38930;52.766;6.884;2023-03-01T00:59:55;16.20;;;9.43;;
53044;SDS011;38930;52.766;6.884;2023-03-01T01:02:20;17.05;;;10.18;;
53044;SDS011;38930;52.766;6.884;2023-03-01T01:04:46;20.40;;;11.25;;
53044;SDS011;38930;52.766;6.884;2023-03-01T01:07:12;18.02;;;9.90;;
53044;SDS011;38930;52.766;6.884;2023-03-01T01:09:38;19.17;;;10.05;;
53044;SDS011;38930;52.766;6.884;2023-03-01T01:12:04;19.50;;;10.32;;
53044;SDS011;38930;52.766;6.884;2023-03-01T01:14:30;19.83;;;11.47;;
53044;SDS011;38930;52.766;6.884;2023-03-01T01:16:56;17.70;;;10.63;;
53044;SDS011;38930;52.766;6.884;2023-03-01T01:19:22;17.42;;;10.43;;
53044;SDS011;38930;52.766;6.884;2023-03-01T01:21:48;16.52;;;10.70;;
53044;SDS011;38930;52.766;6.884;2023-03-01T01:24:14;18.00;;;9.80;;
53044;SDS011;38930;52.766;6.884;2023-03-01T01:26:41;16.48;;;10.65;;
53044;SDS011;38930;52.766;6.884;2023-03-01T01:29:07;19.23;;;10.45;;
53044;SDS011;38930;52.766;6.884;2023-03-01T01:31:34;18.05;;;10.10;;
53044;SDS011;38930;52.766;6.884;2023-03-01T01:36:27;19.83;;;9.85;;
53044;SDS011;38930;52.766;6.884;2023-03-01T01:38:53;15.55;;;9.15;;
53044;SDS011;38930;52.766;6.884;2023-03-01T01:41:19;17.10;;;9.70;;
53044;SDS011;38930;52.766;6.884;2023-03-01T01:43:49;18.27;;;9.75;;
53044;SDS011;38930;52.766;6.884;2023-03-01T01:46:45;16.65;;;9.43;;
53044;SDS011;38930;52.766;6.884;2023-03-01T01:49:29;17.63;;;10.45;;
53044;SDS011;38930;52.766;6.884;2023-03-01T01:52:15;20.17;;;12.25;;
53044;SDS011;38930;52.766;6.884;2023-03-01T01:54:47;26.75;;;12.40;;
53044;SDS011;38930;52.766;6.884;2023-03-01T01:57:18;21.23;;;11.02;;
53044;SDS011;38930;52.766;6.884;2023-03-01T01:59:51;21.02;;;11.85;;
53044;SDS011;38930;52.766;6.884;2023-03-01T02:02:20;19.35;;;12.27;;
53044;SDS011;38930;52.766;6.884;2023-03-01T02:04:46;22.50;;;12.15;;
53044;SDS011;38930;52.766;6.884;2023-03-01T02:07:15;20.50;;;11.07;;
53044;SDS011;38930;52.766;6.884;2023-03-01T02:09:45;23.30;;;10.63;;
53044;SDS011;38930;52.766;6.884;2023-03-01T02:12:13;20.02;;;11.75;;
53044;SDS011;38930;52.766;6.884;2023-03-01T02:14:42;23.63;;;12.15;;
53044;SDS011;38930;52.766;6.884;2023-03-01T02:17:07;19.63;;;12.07;;
53044;SDS011;38930;52.766;6.884;2023-03-01T02:22:25;20.67;;;12.68;;
53044;SDS011;38930;52.766;6.884;2023-03-01T02:30:28;21.65;;;11.52;;
53044;SDS011;38930;52.766;6.884;2023-03-01T02:32:54;24.63;;;11.98;;
53044;SDS011;38930;52.766;6.884;2023-03-01T02:35:27;24.30;;;12.43;;
53044;SDS011;38930;52.766;6.884;2023-03-01T02:37:56;22.73;;;12.15;;
53044;SDS011;38930;52.766;6.884;2023-03-01T02:40:25;21.55;;;11.75;;
53044;SDS011;38930;52.766;6.884;2023-03-01T02:42:57;21.92;;;11.80;;
53044;SDS011;38930;52.766;6.884;2023-03-01T02:45:24;22.00;;;13.15;;
53044;SDS011;38930;52.766;6.884;2023-03-01T02:50:22;25.45;;;11.98;;
53044;SDS011;38930;52.766;6.884;2023-03-01T02:55:23;18.55;;;11.30;;
53044;SDS011;38930;52.766;6.884;2023-03-01T02:57:49;23.50;;;12.35;;
53044;SDS011;38930;52.766;6.884;2023-03-01T03:00:17;21.98;;;12.30;;
53044;SDS011;38930;52.766;6.884;2023-03-01T03:02:53;23.95;;;12.93;;
53044;SDS011;38930;52.766;6.884;2023-03-01T03:05:28;21.67;;;12.43;;
53044;SDS011;38930;52.766;6.884;2023-03-01T03:07:56;19.70;;;11.57;;
53044;SDS011;38930;52.766;6.884;2023-03-01T03:10:26;22.27;;;12.52;;
53044;SDS011;38930;52.766;6.884;2023-03-01T03:12:58;23.90;;;11.85;;
53044;SDS011;38930;52.766;6.884;2023-03-01T03:15:29;21.48;;;12.15;;
53044;SDS011;38930;52.766;6.884;2023-03-01T03:17:55;21.15;;;12.82;;
53044;SDS011;38930;52.766;6.884;2023-03-01T03:20:24;21.35;;;12.23;;
53044;SDS011;38930;52.766;6.884;2023-03-01T03:22:52;23.05;;;12.05;;
53044;SDS011;38930;52.766;6.884;2023-03-01T03:25:19;19.67;;;12.10;;
53044;SDS011;38930;52.766;6.884;2023-03-01T03:27:46;19.38;;;12.02;;
53044;SDS011;38930;52.766;6.884;2023-03-01T03:30:14;20.50;;;11.40;;
53044;SDS011;38930;52.766;6.884;2023-03-01T03:32:42;19.67;;;11.95;;
53044;SDS011;38930;52.766;6.884;2023-03-01T03:35:21;24.45;;;12.70;;
53044;SDS011;38930;52.766;6.884;2023-03-01T03:37:49;21.40;;;12.15;;
53044;SDS011;38930;52.766;6.884;2023-03-01T03:40:28;20.30;;;12.63;;
53044;SDS011;38930;52.766;6.884;2023-03-01T03:42:59;23.00;;;12.45;;
53044;SDS011;38930;52.766;6.884;2023-03-01T03:45:25;20.70;;;12.23;;
53044;SDS011;38930;52.766;6.884;2023-03-01T03:47:51;23.52;;;11.55;;
53044;SDS011;38930;52.766;6.884;2023-03-01T03:50:17;21.10;;;11.88;;
53044;SDS011;38930;52.766;6.884;2023-03-01T03:52:43;25.08;;;12.73;;
53044;SDS011;38930;52.766;6.884;2023-03-01T03:55:10;23.15;;;12.20;;
53044;SDS011;38930;52.766;6.884;2023-03-01T04:00:03;28.23;;;12.95;;
53044;SDS011;38930;52.766;6.884;2023-03-01T04:02:30;22.27;;;12.43;;
53044;SDS011;38930;52.766;6.884;2023-03-01T04:04:56;25.88;;;12.65;;
53044;SDS011;38930;52.766;6.884;2023-03-01T04:07:21;25.48;;;12.65;;
53044;SDS011;38930;52.766;6.884;2023-03-01T04:09:47;22.40;;;12.70;;
53044;SDS011;38930;52.766;6.884;2023-03-01T04:12:12;23.75;;;12.13;;
53044;SDS011;38930;52.766;6.884;2023-03-01T04:14:38;22.90;;;12.65;;
53044;SDS011;38930;52.766;6.884;2023-03-01T04:17:04;24.48;;;12.13;;
53044;SDS011;38930;52.766;6.884;2023-03-01T04:19:30;30.20;;;13.18;;
53044;SDS011;38930;52.766;6.884;2023-03-01T04:22:01;22.60;;;12.63;;
53044;SDS011;38930;52.766;6.884;2023-03-01T04:24:32;34.40;;;13.85;;
53044;SDS011;38930;52.766;6.884;2023-03-01T04:26:58;25.00;;;13.23;;
53044;SDS011;38930;52.766;6.884;2023-03-01T04:29:24;26.92;;;14.00;;
53044;SDS011;38930;52.766;6.884;2023-03-01T04:31:49;26.85;;;14.48;;
53044;SDS011;38930;52.766;6.884;2023-03-01T04:34:15;25.48;;;14.02;;
53044;SDS011;38930;52.766;6.884;2023-03-01T04:36:40;27.90;;;13.13;;
53044;SDS011;38930;52.766;6.884;2023-03-01T04:39:06;29.27;;;14.27;;
53044;SDS011;38930;52.766;6.884;2023-03-01T04:41:37;25.58;;;13.52;;
53044;SDS011;38930;52.766;6.884;2023-03-01T04:44:08;30.45;;;14.10;;
53044;SDS011;38930;52.766;6.884;2023-03-01T04:46:34;24.80;;;13.53;;
53044;SDS011;38930;52.766;6.884;2023-03-01T04:49:00;30.95;;;14.68;;
53044;SDS011;38930;52.766;6.884;2023-03-01T04:51:26;30.08;;;13.57;;
53044;SDS011;38930;52.766;6.884;2023-03-01T04:53:52;24.88;;;13.68;;
53044;SDS011;38930;52.766;6.884;2023-03-01T04:56:18;26.53;;;13.47;;
53044;SDS011;38930;52.766;6.884;2023-03-01T04:58:43;28.58;;;13.07;;
53044;SDS011;38930;52.766;6.884;2023-03-01T05:01:12;24.73;;;13.55;;
53044;SDS011;38930;52.766;6.884;2023-03-01T05:03:43;22.55;;;12.93;;
53044;SDS011;38930;52.766;6.884;2023-03-01T05:06:10;27.70;;;14.52;;
53044;SDS011;38930;52.766;6.884;2023-03-01T05:08:37;25.75;;;13.05;;
53044;SDS011;38930;52.766;6.884;2023-03-01T05:11:03;25.55;;;13.82;;
53044;SDS011;38930;52.766;6.884;2023-03-01T05:15:57;21.58;;;13.45;;
53044;SDS011;38930;52.766;6.884;2023-03-01T05:18:24;27.00;;;13.20;;
53044;SDS011;38930;52.766;6.884;2023-03-01T05:20:52;24.33;;;13.95;;
53044;SDS011;38930;52.766;6.884;2023-03-01T05:23:21;28.08;;;14.90;;
53044;SDS011;38930;52.766;6.884;2023-03-01T05:25:47;23.02;;;13.18;;
53044;SDS011;38930;52.766;6.884;2023-03-01T05:28:14;25.27;;;13.15;;
53044;SDS011;38930;52.766;6.884;2023-03-01T05:30:40;25.88;;;14.40;;
53044;SDS011;38930;52.766;6.884;2023-03-01T05:33:06;20.80;;;11.77;;
53044;SDS011;38930;52.766;6.884;2023-03-01T05:35:38;23.85;;;12.77;;
53044;SDS011;38930;52.766;6.884;2023-03-01T05:38:12;23.35;;;12.73;;
53044;SDS011;38930;52.766;6.884;2023-03-01T05:40:43;21.75;;;12.43;;
53044;SDS011;38930;52.766;6.884;2023-03-01T05:43:10;21.88;;;12.38;;
53044;SDS011;38930;52.766;6.884;2023-03-01T05:45:37;23.92;;;13.02;;
53044;SDS011;38930;52.766;6.884;2023-03-01T05:48:04;23.60;;;13.18;;
53044;SDS011;38930;52.766;6.884;2023-03-01T05:50:35;22.42;;;12.40;;
53044;SDS011;38930;52.766;6.884;2023-03-01T05:53:03;21.95;;;12.50;;
53044;SDS011;38930;52.766;6.884;2023-03-01T05:55:31;22.30;;;12.50;;
53044;SDS011;38930;52.766;6.884;2023-03-01T05:58:00;21.70;;;12.07;;
53044;SDS011;38930;52.766;6.884;2023-03-01T06:00:28;24.48;;;12.10;;
53044;SDS011;38930;52.766;6.884;2023-03-01T06:05:20;23.38;;;12.60;;
53044;SDS011;38930;52.766;6.884;2023-03-01T06:07:47;26.60;;;13.65;;
53044;SDS011;38930;52.766;6.884;2023-03-01T06:10:13;23.40;;;12.27;;
53044;SDS011;38930;52.766;6.884;2023-03-01T06:12:40;24.15;;;12.63;;
53044;SDS011;38930;52.766;6.884;2023-03-01T06:15:07;23.30;;;12.38;;
53044;SDS011;38930;52.766;6.884;2023-03-01T06:17:35;20.00;;;12.10;;
53044;SDS011;38930;52.766;6.884;2023-03-01T06:20:06;21.30;;;12.93;;
53044;SDS011;38930;52.766;6.884;2023-03-01T06:22:35;22.63;;;12.82;;
53044;SDS011;38930;52.766;6.884;2023-03-01T06:25:01;21.35;;;11.80;;
53044;SDS011;38930;52.766;6.884;2023-03-01T06:27:26;23.17;;;12.55;;
53044;SDS011;38930;52.766;6.884;2023-03-01T06:29:52;23.02;;;11.48;;
53044;SDS011;38930;52.766;6.884;2023-03-01T06:32:18;20.88;;;12.57;;
53044;SDS011;38930;52.766;6.884;2023-03-01T06:34:44;24.47;;;13.17;;
53044;SDS011;38930;52.766;6.884;2023-03-01T06:37:09;20.33;;;13.20;;
53044;SDS011;38930;52.766;6.884;2023-03-01T06:39:35;31.02;;;13.75;;
53044;SDS011;38930;52.766;6.884;2023-03-01T06:42:00;24.77;;;13.50;;
53044;SDS011;38930;52.766;6.884;2023-03-01T06:44:26;23.08;;;12.45;;
53044;SDS011;38930;52.766;6.884;2023-03-01T06:46:52;22.38;;;12.68;;
53044;SDS011;38930;52.766;6.884;2023-03-01T06:49:23;23.30;;;13.10;;
53044;SDS011;38930;52.766;6.884;2023-03-01T06:51:49;23.65;;;14.85;;
53044;SDS011;38930;52.766;6.884;2023-03-01T06:54:14;25.98;;;13.88;;
53044;SDS011;38930;52.766;6.884;2023-03-01T06:56:40;25.67;;;14.07;;
53044;SDS011;38930;52.766;6.884;2023-03-01T06:59:05;27.75;;;13.45;;
53044;SDS011;38930;52.766;6.884;2023-03-01T07:01:31;22.73;;;12.70;;
53044;SDS011;38930;52.766;6.884;2023-03-01T07:03:57;28.60;;;15.20;;
53044;SDS011;38930;52.766;6.884;2023-03-01T07:06:22;30.93;;;14.53;;
53044;SDS011;38930;52.766;6.884;2023-03-01T07:08:48;26.98;;;14.63;;
53044;SDS011;38930;52.766;6.884;2023-03-01T07:11:14;28.30;;;14.77;;
53044;SDS011;38930;52.766;6.884;2023-03-01T07:13:40;34.22;;;15.80;;
53044;SDS011;38930;52.766;6.884;2023-03-01T07:16:06;31.75;;;17.70;;
53044;SDS011;38930;52.766;6.884;2023-03-01T07:18:32;38.30;;;19.07;;
53044;SDS011;38930;52.766;6.884;2023-03-01T07:20:57;31.77;;;16.63;;
53044;SDS011;38930;52.766;6.884;2023-03-01T07:23:23;28.87;;;15.87;;
53044;SDS011;38930;52.766;6.884;2023-03-01T07:25:52;31.95;;;17.30;;
53044;SDS011;38930;52.766;6.884;2023-03-01T07:28:19;33.75;;;16.60;;
53044;SDS011;38930;52.766;6.884;2023-03-01T07:30:45;31.17;;;16.20;;
53044;SDS011;38930;52.766;6.884;2023-03-01T07:33:10;32.20;;;16.08;;
53044;SDS011;38930;52.766;6.884;2023-03-01T07:35:36;31.65;;;17.05;;
53044;SDS011;38930;52.766;6.884;2023-03-01T07:38:01;37.05;;;18.52;;
53044;SDS011;38930;52.766;6.884;2023-03-01T07:40:27;32.47;;;17.92;;
53044;SDS011;38930;52.766;6.884;2023-03-01T07:42:56;38.35;;;19.67;;
53044;SDS011;38930;52.766;6.884;2023-03-01T07:45:22;34.78;;;18.30;;
53044;SDS011;38930;52.766;6.884;2023-03-01T07:47:50;40.38;;;20.10;;
53044;SDS011;38930;52.766;6.884;2023-03-01T07:50:16;38.35;;;20.58;;
53044;SDS011;38930;52.766;6.884;2023-03-01T07:52:44;37.83;;;20.27;;
53044;SDS011;38930;52.766;6.884;2023-03-01T07:55:11;35.30;;;19.88;;
53044;SDS011;38930;52.766;6.884;2023-03-01T07:57:36;41.17;;;20.00;;
53044;SDS011;38930;52.766;6.884;2023-03-01T08:00:03;35.90;;;18.27;;
53044;SDS011;38930;52.766;6.884;2023-03-01T08:02:29;37.78;;;20.23;;
53044;SDS011;38930;52.766;6.884;2023-03-01T08:04:54;34.55;;;17.38;;
53044;SDS011;38930;52.766;6.884;2023-03-01T08:07:20;33.58;;;18.08;;
53044;SDS011;38930;52.766;6.884;2023-03-01T08:09:46;31.85;;;17.50;;
53044;SDS011;38930;52.766;6.884;2023-03-01T08:12:11;28.02;;;17.38;;
53044;SDS011;38930;52.766;6.884;2023-03-01T08:14:37;24.65;;;15.00;;
53044;SDS011;38930;52.766;6.884;2023-03-01T08:17:02;28.80;;;15.68;;
53044;SDS011;38930;52.766;6.884;2023-03-01T08:19:28;30.85;;;16.40;;
53044;SDS011;38930;52.766;6.884;2023-03-01T08:21:54;31.77;;;16.13;;
53044;SDS011;38930;52.766;6.884;2023-03-01T08:24:23;26.20;;;15.40;;
53044;SDS011;38930;52.766;6.884;2023-03-01T08:26:49;27.45;;;16.27;;
53044;SDS011;38930;52.766;6.884;2023-03-01T08:29:14;22.80;;;14.73;;
53044;SDS011;38930;52.766;6.884;2023-03-01T08:31:40;27.08;;;15.52;;
53044;SDS011;38930;52.766;6.884;2023-03-01T08:34:13;24.00;;;14.80;;
53044;SDS011;38930;52.766;6.884;2023-03-01T08:36:42;25.67;;;14.80;;
53044;SDS011;38930;52.766;6.884;2023-03-01T08:39:10;20.65;;;13.55;;
53044;SDS011;38930;52.766;6.884;2023-03-01T08:41:36;19.55;;;12.77;;
53044;SDS011;38930;52.766;6.884;2023-03-01T08:44:03;20.08;;;11.50;;
53044;SDS011;38930;52.766;6.884;2023-03-01T08:46:30;18.77;;;10.93;;
53044;SDS011;38930;52.766;6.884;2023-03-01T08:48:58;17.10;;;10.35;;
53044;SDS011;38930;52.766;6.884;2023-03-01T08:51:23;17.15;;;10.02;;
53044;SDS011;38930;52.766;6.884;2023-03-01T08:53:49;18.75;;;9.95;;
53044;SDS011;38930;52.766;6.884;2023-03-01T08:56:16;18.40;;;9.50;;
53044;SDS011;38930;52.766;6.884;2023-03-01T08:58:43;15.02;;;9.15;;
53044;SDS011;38930;52.766;6.884;2023-03-01T09:01:17;11.00;;;7.05;;
53044;SDS011;38930;52.766;6.884;2023-03-01T09:03:43;10.40;;;6.90;;
53044;SDS011;38930;52.766;6.884;2023-03-01T09:06:10;11.63;;;5.73;;
53044;SDS011;38930;52.766;6.884;2023-03-01T09:08:36;10.48;;;5.80;;
53044;SDS011;38930;52.766;6.884;2023-03-01T09:11:03;8.60;;;5.30;;
53044;SDS011;38930;52.766;6.884;2023-03-01T09:13:30;10.85;;;5.10;;
53044;SDS011;38930;52.766;6.884;2023-03-01T09:15:57;6.97;;;5.22;;
53044;SDS011;38930;52.766;6.884;2023-03-01T09:18:23;9.52;;;5.72;;
53044;SDS011;38930;52.766;6.884;2023-03-01T09:20:48;9.25;;;4.63;;
53044;SDS011;38930;52.766;6.884;2023-03-01T09:23:14;8.73;;;4.78;;
53044;SDS011;38930;52.766;6.884;2023-03-01T09:25:40;7.57;;;4.63;;
53044;SDS011;38930;52.766;6.884;2023-03-01T09:28:06;7.68;;;4.63;;
53044;SDS011;38930;52.766;6.884;2023-03-01T09:30:31;8.68;;;4.60;;
53044;SDS011;38930;52.766;6.884;2023-03-01T09:32:57;6.20;;;4.32;;
53044;SDS011;38930;52.766;6.884;2023-03-01T09:35:22;7.18;;;4.68;;
53044;SDS011;38930;52.766;6.884;2023-03-01T09:37:48;8.23;;;4.88;;
53044;SDS011;38930;52.766;6.884;2023-03-01T09:40:19;10.65;;;4.65;;
53044;SDS011;38930;52.766;6.884;2023-03-01T09:42:48;6.18;;;4.28;;
53044;SDS011;38930;52.766;6.884;2023-03-01T09:45:34;7.70;;;4.43;;
53044;SDS011;38930;52.766;6.884;2023-03-01T09:48:05;6.03;;;3.85;;
53044;SDS011;38930;52.766;6.884;2023-03-01T09:50:35;4.75;;;3.45;;
53044;SDS011;38930;52.766;6.884;2023-03-01T09:53:11;6.15;;;3.90;;
53044;SDS011;38930;52.766;6.884;2023-03-01T10:01:02;4.65;;;3.10;;
53044;SDS011;38930;52.766;6.884;2023-03-01T10:03:36;5.95;;;3.58;;
53044;SDS011;38930;52.766;6.884;2023-03-01T10:06:12;5.25;;;3.40;;
53044;SDS011;38930;52.766;6.884;2023-03-01T10:11:33;6.25;;;3.28;;
53044;SDS011;38930;52.766;6.884;2023-03-01T10:14:18;5.28;;;3.33;;
53044;SDS011;38930;52.766;6.884;2023-03-01T10:17:02;4.53;;;3.70;;
53044;SDS011;38930;52.766;6.884;2023-03-01T10:19:36;6.07;;;3.58;;
53044;SDS011;38930;52.766;6.884;2023-03-01T10:22:19;4.97;;;3.60;;
53044;SDS011;38930;52.766;6.884;2023-03-01T10:24:48;7.85;;;3.38;;
53044;SDS011;38930;52.766;6.884;2023-03-01T10:27:22;5.07;;;3.40;;
53044;SDS011;38930;52.766;6.884;2023-03-01T10:32:44;5.32;;;3.28;;
53044;SDS011;38930;52.766;6.884;2023-03-01T10:43:21;4.78;;;3.00;;
53044;SDS011;38930;52.766;6.884;2023-03-01T10:45:47;5.63;;;3.38;;
53044;SDS011;38930;52.766;6.884;2023-03-01T10:50:49;7.60;;;3.63;;
53044;SDS011;38930;52.766;6.884;2023-03-01T10:53:30;6.55;;;3.67;;
53044;SDS011;38930;52.766;6.884;2023-03-01T10:58:40;7.85;;;4.03;;
53044;SDS011;38930;52.766;6.884;2023-03-01T11:03:55;6.82;;;4.00;;
53044;SDS011;38930;52.766;6.884;2023-03-01T11:06:30;5.93;;;3.90;;
53044;SDS011;38930;52.766;6.884;2023-03-01T11:08:57;6.05;;;3.70;;
53044;SDS011;38930;52.766;6.884;2023-03-01T11:11:51;6.05;;;3.65;;
53044;SDS011;38930;52.766;6.884;2023-03-01T11:14:38;5.93;;;3.95;;
53044;SDS011;38930;52.766;6.884;2023-03-01T11:17:17;7.05;;;3.80;;
53044;SDS011;38930;52.766;6.884;2023-03-01T11:20:02;7.90;;;3.70;;
53044;SDS011;38930;52.766;6.884;2023-03-01T11:22:37;6.50;;;4.57;;
53044;SDS011;38930;52.766;6.884;2023-03-01T11:25:11;7.55;;;4.22;;
53044;SDS011;38930;52.766;6.884;2023-03-01T11:27:42;6.82;;;4.30;;
53044;SDS011;38930;52.766;6.884;2023-03-01T11:36:00;7.43;;;4.68;;
53044;SDS011;38930;52.766;6.884;2023-03-01T11:38:34;8.40;;;4.75;;
53044;SDS011;38930;52.766;6.884;2023-03-01T11:41:04;6.25;;;4.50;;
53044;SDS011;38930;52.766;6.884;2023-03-01T11:43:50;7.47;;;4.43;;
53044;SDS011;38930;52.766;6.884;2023-03-01T11:56:35;7.20;;;4.60;;
53044;SDS011;38930;52.766;6.884;2023-03-01T12:02:12;8.57;;;4.82;;
53044;SDS011;38930;52.766;6.884;2023-03-01T12:07:58;8.27;;;4.68;;
53044;SDS011;38930;52.766;6.884;2023-03-01T12:16:32;7.38;;;4.63;;
53044;SDS011;38930;52.766;6.884;2023-03-01T12:22:14;8.30;;;5.30;;
53044;SDS011;38930;52.766;6.884;2023-03-01T12:35:43;7.75;;;5.03;;
53044;SDS011;38930;52.766;6.884;2023-03-01T12:38:17;9.15;;;5.35;;
53044;SDS011;38930;52.766;6.884;2023-03-01T12:43:57;8.57;;;4.57;;
53044;SDS011;38930;52.766;6.884;2023-03-01T12:50:02;10.23;;;5.63;;
53044;SDS011;38930;52.766;6.884;2023-03-01T12:52:44;10.02;;;5.40;;
53044;SDS011;38930;52.766;6.884;2023-03-01T12:55:36;10.13;;;5.60;;
53044;SDS011;38930;52.766;6.884;2023-03-01T12:58:19;11.25;;;5.97;;
53044;SDS011;38930;52.766;6.884;2023-03-01T13:00:58;10.63;;;6.18;;
53044;SDS011;38930;52.766;6.884;2023-03-01T13:10:49;9.55;;;5.50;;
53044;SDS011;38930;52.766;6.884;2023-03-01T13:17:47;7.93;;;5.30;;
53044;SDS011;38930;52.766;6.884;2023-03-01T13:22:44;8.00;;;5.00;;
53044;SDS011;38930;52.766;6.884;2023-03-01T13:25:18;8.85;;;5.70;;
53044;SDS011;38930;52.766;6.884;2023-03-01T13:27:45;8.35;;;5.40;;
53044;SDS011;38930;52.766;6.884;2023-03-01T13:33:33;10.88;;;5.85;;
53044;SDS011;38930;52.766;6.884;2023-03-01T13:35:59;11.65;;;6.40;;
53044;SDS011;38930;52.766;6.884;2023-03-01T13:41:16;11.00;;;5.90;;
53044;SDS011;38930;52.766;6.884;2023-03-01T13:44:01;9.48;;;5.63;;
53044;SDS011;38930;52.766;6.884;2023-03-01T13:46:50;12.50;;;6.20;;
53044;SDS011;38930;52.766;6.884;2023-03-01T13:49:21;11.70;;;7.10;;
53044;SDS011;38930;52.766;6.884;2023-03-01T13:51:51;12.45;;;6.57;;
53044;SDS011;38930;52.766;6.884;2023-03-01T13:54:22;12.50;;;6.53;;
53044;SDS011;38930;52.766;6.884;2023-03-01T13:56:55;10.63;;;6.30;;
53044;SDS011;38930;52.766;6.884;2023-03-01T13:59:23;10.93;;;5.28;;
53044;SDS011;38930;52.766;6.884;2023-03-01T14:01:52;11.63;;;7.18;;
53044;SDS011;38930;52.766;6.884;2023-03-01T14:09:43;13.13;;;6.68;;
53044;SDS011;38930;52.766;6.884;2023-03-01T14:15:09;9.45;;;5.70;;
53044;SDS011;38930;52.766;6.884;2023-03-01T14:17:53;11.18;;;6.47;;
53044;SDS011;38930;52.766;6.884;2023-03-01T14:20:33;9.63;;;6.57;;
53044;SDS011;38930;52.766;6.884;2023-03-01T14:23:09;15.07;;;8.15;;
53044;SDS011;38930;52.766;6.884;2023-03-01T14:25:37;12.65;;;6.82;;
53044;SDS011;38930;52.766;6.884;2023-03-01T14:28:13;13.15;;;7.45;;
53044;SDS011;38930;52.766;6.884;2023-03-01T14:30:45;13.57;;;8.00;;
53044;SDS011;38930;52.766;6.884;2023-03-01T14:36:06;11.48;;;7.15;;
53044;SDS011;38930;52.766;6.884;2023-03-01T14:41:24;11.40;;;7.90;;
53044;SDS011;38930;52.766;6.884;2023-03-01T14:46:31;14.32;;;7.97;;
53044;SDS011;38930;52.766;6.884;2023-03-01T14:49:03;12.07;;;6.65;;
53044;SDS011;38930;52.766;6.884;2023-03-01T14:51:34;14.93;;;7.50;;
53044;SDS011;38930;52.766;6.884;2023-03-01T14:54:10;12.38;;;7.47;;
53044;SDS011;38930;52.766;6.884;2023-03-01T14:59:22;12.52;;;7.00;;
53044;SDS011;38930;52.766;6.884;2023-03-01T15:01:49;16.83;;;7.57;;
53044;SDS011;38930;52.766;6.884;2023-03-01T15:04:16;12.05;;;8.07;;
53044;SDS011;38930;52.766;6.884;2023-03-01T15:06:43;10.65;;;5.93;;
53044;SDS011;38930;52.766;6.884;2023-03-01T15:09:11;10.88;;;6.82;;
53044;SDS011;38930;52.766;6.884;2023-03-01T15:11:41;14.25;;;7.57;;
53044;SDS011;38930;52.766;6.884;2023-03-01T15:16:53;11.88;;;7.18;;
53044;SDS011;38930;52.766;6.884;2023-03-01T15:19:19;10.37;;;6.97;;
53044;SDS011;38930;52.766;6.884;2023-03-01T15:21:46;12.15;;;6.97;;
53044;SDS011;38930;52.766;6.884;2023-03-01T15:24:17;11.23;;;6.88;;
53044;SDS011;38930;52.766;6.884;2023-03-01T15:26:58;10.55;;;6.70;;
53044;SDS011;38930;52.766;6.884;2023-03-01T15:29:32;10.90;;;6.03;;
53044;SDS011;38930;52.766;6.884;2023-03-01T15:32:06;11.77;;;6.10;;
53044;SDS011;38930;52.766;6.884;2023-03-01T15:34:53;9.32;;;6.57;;
53044;SDS011;38930;52.766;6.884;2023-03-01T15:40:22;11.40;;;6.78;;
53044;SDS011;38930;52.766;6.884;2023-03-01T15:42:56;10.52;;;7.15;;
53044;SDS011;38930;52.766;6.884;2023-03-01T15:45:27;11.20;;;7.10;;
53044;SDS011;38930;52.766;6.884;2023-03-01T15:47:58;14.68;;;6.80;;
53044;SDS011;38930;52.766;6.884;2023-03-01T15:50:30;10.35;;;6.82;;
53044;SDS011;38930;52.766;6.884;2023-03-01T15:52:58;12.00;;;7.93;;
53044;SDS011;38930;52.766;6.884;2023-03-01T15:55:25;12.95;;;7.25;;
53044;SDS011;38930;52.766;6.884;2023-03-01T15:57:58;10.20;;;7.55;;
53044;SDS011;38930;52.766;6.884;2023-03-01T16:00:26;10.43;;;6.88;;
53044;SDS011;38930;52.766;6.884;2023-03-01T16:02:52;10.68;;;7.63;;
53044;SDS011;38930;52.766;6.884;2023-03-01T16:05:20;12.05;;;7.63;;
53044;SDS011;38930;52.766;6.884;2023-03-01T16:07:51;13.65;;;8.35;;
53044;SDS011;38930;52.766;6.884;2023-03-01T16:10:17;11.98;;;7.75;;
53044;SDS011;38930;52.766;6.884;2023-03-01T16:12:44;14.15;;;7.93;;
53044;SDS011;38930;52.766;6.884;2023-03-01T16:15:17;12.70;;;7.77;;
53044;SDS011;38930;52.766;6.884;2023-03-01T16:17:49;17.20;;;7.80;;
53044;SDS011;38930;52.766;6.884;2023-03-01T16:20:15;13.07;;;7.80;;
53044;SDS011;38930;52.766;6.884;2023-03-01T16:22:44;10.32;;;7.20;;
53044;SDS011;38930;52.766;6.884;2023-03-01T16:25:11;12.63;;;7.45;;
53044;SDS011;38930;52.766;6.884;2023-03-01T16:27:41;11.45;;;7.57;;
53044;SDS011;38930;52.766;6.884;2023-03-01T16:30:07;11.57;;;7.10;;
53044;SDS011;38930;52.766;6.884;2023-03-01T16:32:37;11.77;;;6.90;;
53044;SDS011;38930;52.766;6.884;2023-03-01T16:35:07;12.45;;;7.38;;
53044;SDS011;38930;52.766;6.884;2023-03-01T16:40:00;11.18;;;7.43;;
53044;SDS011;38930;52.766;6.884;2023-03-01T16:42:29;12.32;;;7.70;;
53044;SDS011;38930;52.766;6.884;2023-03-01T16:45:01;13.80;;;8.20;;
53044;SDS011;38930;52.766;6.884;2023-03-01T16:47:27;15.57;;;8.10;;
53044;SDS011;38930;52.766;6.884;2023-03-01T16:49:53;13.03;;;7.90;;
53044;SDS011;38930;52.766;6.884;2023-03-01T16:52:20;13.60;;;8.65;;
53044;SDS011;38930;52.766;6.884;2023-03-01T16:54:46;14.75;;;9.15;;
53044;SDS011;38930;52.766;6.884;2023-03-01T16:57:12;17.05;;;9.43;;
53044;SDS011;38930;52.766;6.884;2023-03-01T16:59:38;22.08;;;9.55;;
53044;SDS011;38930;52.766;6.884;2023-03-01T17:02:04;16.92;;;9.48;;
53044;SDS011;38930;52.766;6.884;2023-03-01T17:04:31;15.32;;;9.93;;
53044;SDS011;38930;52.766;6.884;2023-03-01T17:06:57;15.90;;;9.48;;
53044;SDS011;38930;52.766;6.884;2023-03-01T17:12:29;16.73;;;10.20;;